createdAt,value
2023-05-10T00:00:02.455Z,14.04
2023-05-10T00:00:18.837Z,14.05
2023-05-10T00:00:34.701Z,14.06
2023-05-10T00:00:50.868Z,14.06
2023-05-10T00:01:06.988Z,14.07
2023-05-10T00:01:23.149Z,14.06
2023-05-10T00:01:39.320Z,14.06
2023-05-10T00:01:55.460Z,14.1
2023-05-10T00:02:11.639Z,14.12
2023-05-10T00:02:27.796Z,14.12
2023-05-10T00:02:43.910Z,14.13
2023-05-10T00:03:00.097Z,14.08
2023-05-10T00:03:16.213Z,14.1
2023-05-10T00:03:32.284Z,14.12
2023-05-10T00:03:48.626Z,14.15
2023-05-10T00:04:04.682Z,14.15
2023-05-10T00:04:20.840Z,14.13
2023-05-10T00:04:36.815Z,14.14
2023-05-10T00:04:53.052Z,14.1
2023-05-10T00:05:09.223Z,14.11
2023-05-10T00:05:25.350Z,14.12
2023-05-10T00:05:41.463Z,14.12
2023-05-10T00:05:57.618Z,14.12
2023-05-10T00:06:13.768Z,14.08
2023-05-10T00:06:29.914Z,14.07
2023-05-10T00:06:46.090Z,14.1
2023-05-10T00:07:13.498Z,14.06
2023-05-10T00:07:29.638Z,14.04
2023-05-10T00:07:45.932Z,14.02
2023-05-10T00:08:01.923Z,14.03
2023-05-10T00:08:18.061Z,14.02
2023-05-10T00:08:34.205Z,13.99
2023-05-10T00:08:50.354Z,13.96
2023-05-10T00:09:06.516Z,14.02
2023-05-10T00:09:22.648Z,13.98
2023-05-10T00:09:38.791Z,14.03
2023-05-10T00:09:54.925Z,14.02
2023-05-10T00:10:11.123Z,14.05
2023-05-10T00:10:27.261Z,13.99
2023-05-10T00:10:43.382Z,14.02
2023-05-10T00:10:59.530Z,14.04
2023-05-10T00:11:15.707Z,13.99
2023-05-10T00:11:31.844Z,13.99
2023-05-10T00:11:47.957Z,14.03
2023-05-10T00:12:04.105Z,14.02
2023-05-10T00:12:20.250Z,14.04
2023-05-10T00:12:36.383Z,14
2023-05-10T00:12:52.654Z,14.01
2023-05-10T00:13:08.756Z,13.98
2023-05-10T00:13:24.860Z,14.02
2023-05-10T00:13:40.979Z,14
2023-05-10T00:13:57.132Z,14.02
2023-05-10T00:14:13.295Z,14.02
2023-05-10T00:14:29.402Z,14.03
2023-05-10T00:14:45.564Z,14.06
2023-05-10T00:15:01.717Z,14.06
2023-05-10T00:15:17.876Z,14.04
2023-05-10T00:15:34.011Z,14
2023-05-10T00:15:50.132Z,14.01
2023-05-10T00:16:06.309Z,14.03
2023-05-10T00:16:22.472Z,14
2023-05-10T00:16:38.647Z,14.01
2023-05-10T00:16:54.831Z,14.04
2023-05-10T00:17:10.891Z,14.07
2023-05-10T00:17:27.090Z,14.02
2023-05-10T00:17:43.218Z,14.02
2023-05-10T00:17:59.324Z,13.98
2023-05-10T00:18:15.445Z,13.97
2023-05-10T00:18:31.584Z,13.96
2023-05-10T00:18:47.736Z,13.97
2023-05-10T00:19:03.909Z,13.94
2023-05-10T00:19:20.046Z,13.99
2023-05-10T00:19:36.223Z,14.02
2023-05-10T00:19:52.331Z,14.03
2023-05-10T00:20:08.459Z,14
2023-05-10T00:20:24.630Z,13.98
2023-05-10T00:20:40.762Z,13.92
2023-05-10T00:20:56.925Z,13.91
2023-05-10T00:21:13.087Z,13.96
2023-05-10T00:21:29.184Z,13.97
2023-05-10T00:21:45.352Z,13.94
2023-05-10T00:22:01.502Z,13.9
2023-05-10T00:22:17.658Z,13.93
2023-05-10T00:22:33.764Z,13.92
2023-05-10T00:22:49.922Z,13.95
2023-05-10T00:23:06.058Z,13.97
2023-05-10T00:23:22.133Z,13.97
2023-05-10T00:23:38.428Z,13.95
2023-05-10T00:23:54.523Z,14
2023-05-10T00:24:10.661Z,14.01
2023-05-10T00:24:26.803Z,13.96
2023-05-10T00:24:42.947Z,13.94
2023-05-10T00:24:59.081Z,13.91
2023-05-10T00:25:15.247Z,13.9
2023-05-10T00:25:31.379Z,13.94
2023-05-10T00:25:47.533Z,13.94
2023-05-10T00:26:03.720Z,13.99
2023-05-10T00:26:19.833Z,13.99
2023-05-10T00:26:35.956Z,13.92
2023-05-10T00:26:52.105Z,13.92
2023-05-10T00:27:08.254Z,13.93
2023-05-10T00:27:24.398Z,13.93
2023-05-10T00:27:40.542Z,13.88
2023-05-10T00:27:56.679Z,13.87
2023-05-10T00:28:12.830Z,13.9
2023-05-10T00:28:28.987Z,13.93
2023-05-10T00:28:45.139Z,13.93
2023-05-10T00:29:01.295Z,13.9
2023-05-10T00:29:17.448Z,13.82
2023-05-10T00:29:33.564Z,13.86
2023-05-10T00:29:49.731Z,13.8
2023-05-10T00:30:05.850Z,13.8
2023-05-10T00:30:21.999Z,13.73
2023-05-10T00:30:38.204Z,13.77
2023-05-10T00:30:54.289Z,13.76
2023-05-10T00:31:10.442Z,13.74
2023-05-10T00:31:26.603Z,13.78
2023-05-10T00:31:42.763Z,13.78
2023-05-10T00:31:58.949Z,13.77
2023-05-10T00:32:15.068Z,13.8
2023-05-10T00:32:31.178Z,13.79
2023-05-10T00:32:47.365Z,13.81
2023-05-10T00:33:03.572Z,13.81
2023-05-10T00:33:19.645Z,13.81
2023-05-10T00:33:35.748Z,13.86
2023-05-10T00:33:51.899Z,13.78
2023-05-10T00:34:08.038Z,13.79
2023-05-10T00:34:24.197Z,13.79
2023-05-10T00:34:40.327Z,13.74
2023-05-10T00:34:56.459Z,13.71
2023-05-10T00:35:12.617Z,13.69
2023-05-10T00:35:28.752Z,13.73
2023-05-10T00:35:44.899Z,13.75
2023-05-10T00:36:01.073Z,13.77
2023-05-10T00:36:17.202Z,13.81
2023-05-10T00:36:33.357Z,13.71
2023-05-10T00:36:49.481Z,13.72
2023-05-10T00:37:05.632Z,13.73
2023-05-10T00:37:21.812Z,13.76
2023-05-10T00:37:37.935Z,13.77
2023-05-10T00:37:54.082Z,13.74
2023-05-10T00:38:10.240Z,13.73
2023-05-10T00:38:26.387Z,13.76
2023-05-10T00:38:42.510Z,13.69
2023-05-10T00:38:58.648Z,13.69
2023-05-10T00:39:14.799Z,13.74
2023-05-10T00:39:30.977Z,13.76
2023-05-10T00:39:47.102Z,13.78
2023-05-10T00:40:03.270Z,13.74
2023-05-10T00:40:19.554Z,13.73
2023-05-10T00:40:35.524Z,13.72
2023-05-10T00:40:51.665Z,13.72
2023-05-10T00:41:07.828Z,13.74
2023-05-10T00:41:23.982Z,13.72
2023-05-10T00:41:40.105Z,13.74
2023-05-10T00:41:56.251Z,13.74
2023-05-10T00:42:12.419Z,13.75
2023-05-10T00:42:28.555Z,13.76
2023-05-10T00:42:44.685Z,13.69
2023-05-10T00:43:00.845Z,13.75
2023-05-10T00:43:16.989Z,13.76
2023-05-10T00:43:33.123Z,13.71
2023-05-10T00:43:49.300Z,13.69
2023-05-10T00:44:05.439Z,13.7
2023-05-10T00:44:21.591Z,13.67
2023-05-10T00:44:37.702Z,13.7
2023-05-10T00:44:53.898Z,13.67
2023-05-10T00:45:10.048Z,13.7
2023-05-10T00:45:26.186Z,13.68
2023-05-10T00:45:42.369Z,13.67
2023-05-10T00:45:58.488Z,13.73
2023-05-10T00:46:14.654Z,13.72
2023-05-10T00:46:30.912Z,13.71
2023-05-10T00:46:46.895Z,13.73
2023-05-10T00:47:03.052Z,13.74
2023-05-10T00:47:19.183Z,13.74
2023-05-10T00:47:35.354Z,13.73
2023-05-10T00:47:51.473Z,13.7
2023-05-10T00:48:07.651Z,13.73
2023-05-10T00:48:23.743Z,13.71
2023-05-10T00:48:39.887Z,13.7
2023-05-10T00:48:56.053Z,13.71
2023-05-10T00:49:12.201Z,13.71
2023-05-10T00:49:28.372Z,13.68
2023-05-10T00:49:44.479Z,13.69
2023-05-10T00:50:00.656Z,13.68
2023-05-10T00:50:17.101Z,13.73
2023-05-10T00:50:32.943Z,13.71
2023-05-10T00:50:49.078Z,13.73
2023-05-10T00:51:05.239Z,13.72
2023-05-10T00:51:21.354Z,13.64
2023-05-10T00:51:37.506Z,13.66
2023-05-10T00:51:53.660Z,13.7
2023-05-10T00:52:09.788Z,13.74
2023-05-10T00:52:26.101Z,13.74
2023-05-10T00:52:42.077Z,13.76
2023-05-10T00:52:58.238Z,13.74
2023-05-10T00:53:14.368Z,13.72
2023-05-10T00:53:30.574Z,13.73
2023-05-10T00:53:46.664Z,13.77
2023-05-10T00:54:02.817Z,13.75
2023-05-10T00:54:18.987Z,13.74
2023-05-10T00:54:35.106Z,13.75
2023-05-10T00:54:51.238Z,13.75
2023-05-10T00:55:07.398Z,13.7
2023-05-10T00:55:23.534Z,13.66
2023-05-10T00:55:39.670Z,13.66
2023-05-10T00:55:55.820Z,13.63
2023-05-10T00:56:11.970Z,13.61
2023-05-10T00:56:28.130Z,13.59
2023-05-10T00:56:44.250Z,13.63
2023-05-10T00:57:00.432Z,13.63
2023-05-10T00:57:16.577Z,13.6
2023-05-10T00:57:32.705Z,13.64
2023-05-10T00:57:48.854Z,13.63
2023-05-10T00:58:04.974Z,13.62
2023-05-10T00:58:21.151Z,13.6
2023-05-10T00:58:37.230Z,13.67
2023-05-10T00:58:53.431Z,13.67
2023-05-10T00:59:09.586Z,13.64
2023-05-10T00:59:25.732Z,13.65
2023-05-10T00:59:41.875Z,13.69
2023-05-10T00:59:58.018Z,13.63
2023-05-10T01:00:14.361Z,13.58
2023-05-10T01:00:30.314Z,13.6
2023-05-10T01:00:46.436Z,13.59
2023-05-10T01:01:13.960Z,13.66
2023-05-10T01:01:30.083Z,13.6
2023-05-10T01:01:46.247Z,13.6
2023-05-10T01:02:02.345Z,13.62
2023-05-10T01:02:18.478Z,13.61
2023-05-10T01:02:34.742Z,13.62
2023-05-10T01:02:51.077Z,13.61
2023-05-10T01:03:07.022Z,13.61
2023-05-10T01:03:23.199Z,13.64
2023-05-10T01:03:39.206Z,13.6
2023-05-10T01:03:55.356Z,13.59
2023-05-10T01:04:11.465Z,13.6
2023-05-10T01:04:27.635Z,13.59
2023-05-10T01:04:43.811Z,13.56
2023-05-10T01:04:59.939Z,13.6
2023-05-10T01:05:16.148Z,13.59
2023-05-10T01:05:32.216Z,13.6
2023-05-10T01:05:48.356Z,13.63
2023-05-10T01:06:04.513Z,13.65
2023-05-10T01:06:20.638Z,13.63
2023-05-10T01:06:36.792Z,13.62
2023-05-10T01:06:52.927Z,13.6
2023-05-10T01:07:09.073Z,13.6
2023-05-10T01:07:25.222Z,13.61
2023-05-10T01:07:41.368Z,13.64
2023-05-10T01:07:57.536Z,13.58
2023-05-10T01:08:13.661Z,13.58
2023-05-10T01:08:29.810Z,13.57
2023-05-10T01:08:45.952Z,13.58
2023-05-10T01:09:02.133Z,13.61
2023-05-10T01:09:18.273Z,13.62
2023-05-10T01:09:34.394Z,13.66
2023-05-10T01:09:50.551Z,13.61
2023-05-10T01:10:06.686Z,13.62
2023-05-10T01:10:22.852Z,13.57
2023-05-10T01:10:38.975Z,13.57
2023-05-10T01:10:55.171Z,13.57
2023-05-10T01:11:11.269Z,13.57
2023-05-10T01:11:27.407Z,13.55
2023-05-10T01:11:43.550Z,13.54
2023-05-10T01:11:59.717Z,13.57
2023-05-10T01:12:15.883Z,13.59
2023-05-10T01:12:32.055Z,13.5
2023-05-10T01:12:48.261Z,13.54
2023-05-10T01:13:04.340Z,13.56
2023-05-10T01:13:20.479Z,13.56
2023-05-10T01:13:36.597Z,13.54
2023-05-10T01:13:52.736Z,13.55
2023-05-10T01:14:08.886Z,13.55
2023-05-10T01:14:25.022Z,13.57
2023-05-10T01:14:41.147Z,13.57
2023-05-10T01:14:57.324Z,13.54
2023-05-10T01:15:13.432Z,13.54
2023-05-10T01:15:29.598Z,13.49
2023-05-10T01:15:45.748Z,13.49
2023-05-10T01:16:01.903Z,13.5
2023-05-10T01:16:18.112Z,13.5
2023-05-10T01:16:34.293Z,13.53
2023-05-10T01:16:50.320Z,13.54
2023-05-10T01:17:06.470Z,13.58
2023-05-10T01:17:22.594Z,13.54
2023-05-10T01:17:38.800Z,13.57
2023-05-10T01:17:54.987Z,13.56
2023-05-10T01:18:11.059Z,13.55
2023-05-10T01:18:27.209Z,13.54
2023-05-10T01:18:43.348Z,13.5
2023-05-10T01:18:59.492Z,13.54
2023-05-10T01:19:15.633Z,13.48
2023-05-10T01:19:31.766Z,13.47
2023-05-10T01:19:47.912Z,13.45
2023-05-10T01:20:04.063Z,13.45
2023-05-10T01:20:20.344Z,13.49
2023-05-10T01:20:36.380Z,13.49
2023-05-10T01:20:52.510Z,13.51
2023-05-10T01:21:08.656Z,13.52
2023-05-10T01:21:24.834Z,13.55
2023-05-10T01:21:40.952Z,13.52
2023-05-10T01:21:57.088Z,13.48
2023-05-10T01:22:13.228Z,13.48
2023-05-10T01:22:29.375Z,13.5
2023-05-10T01:22:45.518Z,13.54
2023-05-10T01:23:01.654Z,13.47
2023-05-10T01:23:17.826Z,13.47
2023-05-10T01:23:33.993Z,13.45
2023-05-10T01:23:50.104Z,13.47
2023-05-10T01:24:06.253Z,13.5
2023-05-10T01:24:22.392Z,13.44
2023-05-10T01:24:38.567Z,13.39
2023-05-10T01:24:54.731Z,13.42
2023-05-10T01:25:10.828Z,13.44
2023-05-10T01:25:27.028Z,13.43
2023-05-10T01:25:43.155Z,13.41
2023-05-10T01:25:59.285Z,13.36
2023-05-10T01:26:15.416Z,13.38
2023-05-10T01:26:31.598Z,13.39
2023-05-10T01:26:47.706Z,13.35
2023-05-10T01:27:03.891Z,13.39
2023-05-10T01:27:20.025Z,13.42
2023-05-10T01:27:36.140Z,13.41
2023-05-10T01:27:52.307Z,13.43
2023-05-10T01:28:08.453Z,13.45
2023-05-10T01:28:24.579Z,13.48
2023-05-10T01:28:40.743Z,13.51
2023-05-10T01:28:56.866Z,13.52
2023-05-10T01:29:13.028Z,13.51
2023-05-10T01:29:29.099Z,13.52
2023-05-10T01:29:45.345Z,13.52
2023-05-10T01:30:14.697Z,13.52
2023-05-10T01:30:17.594Z,13.38
2023-05-10T01:30:33.766Z,13.39
2023-05-10T01:30:49.908Z,13.39
2023-05-10T01:31:06.071Z,13.38
2023-05-10T01:31:22.269Z,13.34
2023-05-10T01:31:38.346Z,13.3
2023-05-10T01:31:54.460Z,13.35
2023-05-10T01:32:10.639Z,13.4
2023-05-10T01:32:26.824Z,13.41
2023-05-10T01:32:42.929Z,13.45
2023-05-10T01:32:59.097Z,13.48
2023-05-10T01:33:15.200Z,13.48
2023-05-10T01:33:31.331Z,13.46
2023-05-10T01:33:47.493Z,13.47
2023-05-10T01:34:03.676Z,13.49
2023-05-10T01:34:19.803Z,13.48
2023-05-10T01:34:35.930Z,13.5
2023-05-10T01:34:52.114Z,13.52
2023-05-10T01:35:08.209Z,13.5
2023-05-10T01:35:24.392Z,13.52
2023-05-10T01:35:40.493Z,13.46
2023-05-10T01:35:56.668Z,13.44
2023-05-10T01:36:12.814Z,13.42
2023-05-10T01:36:28.927Z,13.43
2023-05-10T01:36:45.073Z,13.44
2023-05-10T01:37:01.225Z,13.44
2023-05-10T01:37:17.372Z,13.41
2023-05-10T01:37:33.515Z,13.39
2023-05-10T01:37:49.674Z,13.42
2023-05-10T01:38:05.831Z,13.4
2023-05-10T01:38:21.958Z,13.35
2023-05-10T01:38:38.131Z,13.35
2023-05-10T01:38:54.284Z,13.4
2023-05-10T01:39:10.432Z,13.43
2023-05-10T01:39:26.532Z,13.42
2023-05-10T01:39:42.698Z,13.45
2023-05-10T01:39:58.821Z,13.45
2023-05-10T01:40:15.287Z,13.48
2023-05-10T01:40:31.109Z,13.46
2023-05-10T01:40:47.258Z,13.46
2023-05-10T01:41:03.494Z,13.49
2023-05-10T01:41:19.572Z,13.5
2023-05-10T01:41:35.624Z,13.49
2023-05-10T01:41:51.842Z,13.43
2023-05-10T01:42:08.012Z,13.45
2023-05-10T01:42:24.138Z,13.35
2023-05-10T01:42:40.290Z,13.33
2023-05-10T01:42:56.445Z,13.31
2023-05-10T01:43:12.602Z,13.26
2023-05-10T01:43:28.752Z,13.3
2023-05-10T01:43:44.796Z,13.34
2023-05-10T01:44:01.039Z,13.29
2023-05-10T01:44:17.142Z,13.3
2023-05-10T01:44:33.308Z,13.31
2023-05-10T01:44:49.452Z,13.29
2023-05-10T01:45:05.608Z,13.35
2023-05-10T01:45:21.758Z,13.37
2023-05-10T01:45:37.915Z,13.36
2023-05-10T01:45:54.023Z,13.3
2023-05-10T01:46:10.238Z,13.3
2023-05-10T01:46:26.356Z,13.32
2023-05-10T01:46:42.521Z,13.29
2023-05-10T01:46:58.643Z,13.24
2023-05-10T01:47:14.759Z,13.25
2023-05-10T01:47:30.984Z,13.27
2023-05-10T01:47:47.086Z,13.3
2023-05-10T01:48:03.253Z,13.3
2023-05-10T01:48:19.334Z,13.27
2023-05-10T01:48:35.529Z,13.31
2023-05-10T01:48:51.647Z,13.3
2023-05-10T01:49:07.812Z,13.28
2023-05-10T01:49:23.918Z,13.23
2023-05-10T01:49:40.082Z,13.23
2023-05-10T01:49:56.213Z,13.21
2023-05-10T01:50:12.387Z,13.2
2023-05-10T01:50:28.517Z,13.18
2023-05-10T01:50:44.663Z,13.23
2023-05-10T01:51:00.787Z,13.24
2023-05-10T01:51:16.935Z,13.27
2023-05-10T01:51:33.068Z,13.28
2023-05-10T01:51:49.228Z,13.29
2023-05-10T01:52:05.391Z,13.3
2023-05-10T01:52:21.522Z,13.3
2023-05-10T01:52:37.700Z,13.3
2023-05-10T01:52:53.829Z,13.32
2023-05-10T01:53:10.011Z,13.35
2023-05-10T01:53:26.115Z,13.32
2023-05-10T01:53:42.265Z,13.35
2023-05-10T01:53:58.403Z,13.29
2023-05-10T01:54:14.529Z,13.3
2023-05-10T01:54:30.700Z,13.29
2023-05-10T01:54:46.763Z,13.26
2023-05-10T01:55:14.269Z,13.27
2023-05-10T01:55:30.445Z,13.27
2023-05-10T01:55:46.573Z,13.2
2023-05-10T01:56:02.690Z,13.15
2023-05-10T01:56:18.855Z,13.15
2023-05-10T01:56:35.028Z,13.16
2023-05-10T01:56:51.134Z,13.13
2023-05-10T01:57:07.271Z,13.11
2023-05-10T01:57:23.443Z,13.11
2023-05-10T01:57:39.600Z,13.09
2023-05-10T01:57:55.722Z,13.12
2023-05-10T01:58:11.860Z,13.13
2023-05-10T01:58:27.989Z,13.13
2023-05-10T01:58:44.160Z,13.15
2023-05-10T01:59:00.312Z,13.12
2023-05-10T01:59:16.440Z,13.09
2023-05-10T01:59:32.610Z,13.12
2023-05-10T01:59:48.729Z,13.08
2023-05-10T02:00:04.906Z,13.08
2023-05-10T02:00:21.045Z,13.02
2023-05-10T02:00:37.246Z,13.05
2023-05-10T02:00:53.503Z,13.05
2023-05-10T02:01:09.477Z,13.09
2023-05-10T02:01:25.646Z,13.09
2023-05-10T02:01:41.775Z,13.13
2023-05-10T02:01:57.913Z,13.13
2023-05-10T02:02:14.052Z,13.14
2023-05-10T02:02:30.316Z,13.14
2023-05-10T02:02:46.430Z,13.04
2023-05-10T02:03:02.550Z,12.99
2023-05-10T02:03:18.700Z,13.01
2023-05-10T02:03:34.847Z,13.06
2023-05-10T02:03:51.036Z,13.06
2023-05-10T02:04:07.103Z,13.03
2023-05-10T02:04:23.218Z,13.05
2023-05-10T02:04:39.396Z,13.07
2023-05-10T02:04:55.518Z,13.03
2023-05-10T02:05:11.638Z,13.05
2023-05-10T02:05:27.798Z,13.05
2023-05-10T02:05:43.926Z,13.04
2023-05-10T02:06:00.129Z,13.05
2023-05-10T02:06:16.230Z,13.1
2023-05-10T02:06:32.386Z,13.12
2023-05-10T02:06:48.548Z,13.09
2023-05-10T02:07:04.669Z,13.09
2023-05-10T02:07:20.900Z,12.95
2023-05-10T02:07:36.950Z,12.9
2023-05-10T02:07:53.089Z,12.86
2023-05-10T02:08:09.294Z,12.87
2023-05-10T02:08:25.403Z,12.87
2023-05-10T02:08:41.544Z,12.9
2023-05-10T02:08:57.706Z,12.86
2023-05-10T02:09:13.838Z,12.9
2023-05-10T02:09:30.002Z,12.92
2023-05-10T02:09:46.147Z,12.86
2023-05-10T02:10:02.305Z,12.83
2023-05-10T02:10:18.807Z,12.76
2023-05-10T02:10:34.562Z,12.78
2023-05-10T02:10:50.698Z,12.8
2023-05-10T02:11:06.850Z,12.75
2023-05-10T02:11:22.990Z,12.73
2023-05-10T02:11:39.145Z,12.74
2023-05-10T02:11:55.304Z,12.77
2023-05-10T02:12:11.426Z,12.82
2023-05-10T02:12:27.497Z,12.85
2023-05-10T02:12:43.777Z,12.85
2023-05-10T02:12:59.928Z,12.86
2023-05-10T02:13:16.157Z,12.89
2023-05-10T02:13:32.173Z,12.87
2023-05-10T02:13:48.369Z,12.89
2023-05-10T02:14:04.446Z,12.89
2023-05-10T02:14:20.614Z,12.86
2023-05-10T02:14:36.681Z,12.89
2023-05-10T02:14:52.902Z,12.83
2023-05-10T02:15:09.022Z,12.85
2023-05-10T02:15:25.246Z,12.76
2023-05-10T02:15:41.365Z,12.83
2023-05-10T02:15:57.509Z,12.82
2023-05-10T02:16:13.683Z,12.77
2023-05-10T02:16:29.818Z,12.83
2023-05-10T02:16:45.952Z,12.76
2023-05-10T02:17:02.194Z,12.73
2023-05-10T02:17:18.235Z,12.75
2023-05-10T02:17:34.409Z,12.77
2023-05-10T02:17:50.556Z,12.78
2023-05-10T02:18:06.682Z,12.79
2023-05-10T02:18:22.817Z,12.75
2023-05-10T02:18:38.950Z,12.68
2023-05-10T02:18:55.075Z,12.69
2023-05-10T02:19:11.227Z,12.69
2023-05-10T02:19:27.375Z,12.69
2023-05-10T02:19:43.516Z,12.69
2023-05-10T02:19:59.685Z,12.65
2023-05-10T02:20:16.053Z,12.68
2023-05-10T02:20:31.953Z,12.67
2023-05-10T02:20:48.142Z,12.71
2023-05-10T02:21:04.268Z,12.75
2023-05-10T02:21:20.393Z,12.76
2023-05-10T02:21:36.539Z,12.71
2023-05-10T02:21:52.668Z,12.7
2023-05-10T02:22:08.816Z,12.73
2023-05-10T02:22:25.018Z,12.76
2023-05-10T02:22:41.122Z,12.75
2023-05-10T02:22:57.272Z,12.7
2023-05-10T02:23:13.443Z,12.66
2023-05-10T02:23:29.542Z,12.68
2023-05-10T02:23:45.728Z,12.69
2023-05-10T02:24:01.839Z,12.69
2023-05-10T02:24:17.983Z,12.69
2023-05-10T02:24:34.228Z,12.63
2023-05-10T02:24:50.274Z,12.62
2023-05-10T02:25:06.444Z,12.59
2023-05-10T02:25:22.570Z,12.63
2023-05-10T02:25:38.728Z,12.62
2023-05-10T02:25:54.847Z,12.64
2023-05-10T02:26:11.043Z,12.65
2023-05-10T02:26:27.168Z,12.67
2023-05-10T02:26:43.289Z,12.61
2023-05-10T02:26:59.432Z,12.62
2023-05-10T02:27:15.581Z,12.58
2023-05-10T02:27:31.741Z,12.52
2023-05-10T02:27:47.879Z,12.51
2023-05-10T02:28:04.013Z,12.54
2023-05-10T02:28:20.226Z,12.52
2023-05-10T02:28:36.309Z,12.56
2023-05-10T02:28:52.469Z,12.56
2023-05-10T02:29:08.601Z,12.59
2023-05-10T02:29:24.750Z,12.56
2023-05-10T02:29:40.930Z,12.59
2023-05-10T02:29:57.070Z,12.61
2023-05-10T02:30:13.284Z,12.61
2023-05-10T02:30:29.368Z,12.58
2023-05-10T02:30:45.487Z,12.5
2023-05-10T02:31:01.652Z,12.55
2023-05-10T02:31:17.763Z,12.58
2023-05-10T02:31:34.027Z,12.57
2023-05-10T02:31:50.121Z,12.61
2023-05-10T02:32:06.257Z,12.61
2023-05-10T02:32:22.390Z,12.57
2023-05-10T02:32:38.535Z,12.55
2023-05-10T02:32:54.744Z,12.58
2023-05-10T02:33:10.794Z,12.59
2023-05-10T02:33:26.960Z,12.59
2023-05-10T02:33:43.100Z,12.57
2023-05-10T02:33:59.206Z,12.54
2023-05-10T02:34:15.364Z,12.5
2023-05-10T02:34:31.435Z,12.54
2023-05-10T02:34:47.666Z,12.57
2023-05-10T02:35:03.824Z,12.56
2023-05-10T02:35:19.945Z,12.54
2023-05-10T02:35:36.132Z,12.53
2023-05-10T02:35:52.254Z,12.55
2023-05-10T02:36:08.368Z,12.55
2023-05-10T02:36:24.524Z,12.49
2023-05-10T02:36:40.704Z,12.5
2023-05-10T02:36:56.843Z,12.54
2023-05-10T02:37:12.988Z,12.57
2023-05-10T02:37:29.101Z,12.57
2023-05-10T02:37:45.258Z,12.57
2023-05-10T02:38:01.422Z,12.48
2023-05-10T02:38:17.571Z,12.48
2023-05-10T02:38:33.700Z,12.51
2023-05-10T02:38:49.857Z,12.52
2023-05-10T02:39:06.032Z,12.51
2023-05-10T02:39:22.151Z,12.54
2023-05-10T02:39:38.303Z,12.53
2023-05-10T02:39:54.405Z,12.52
2023-05-10T02:40:10.608Z,12.54
2023-05-10T02:40:28.644Z,12.5
2023-05-10T02:40:42.867Z,12.5
2023-05-10T02:40:59.000Z,12.52
2023-05-10T02:41:15.199Z,12.5
2023-05-10T02:41:31.309Z,12.5
2023-05-10T02:41:47.442Z,12.5
2023-05-10T02:42:03.602Z,12.47
2023-05-10T02:42:19.762Z,12.51
2023-05-10T02:42:35.883Z,12.5
2023-05-10T02:42:52.033Z,12.52
2023-05-10T02:43:08.213Z,12.54
2023-05-10T02:43:24.310Z,12.58
2023-05-10T02:43:40.470Z,12.58
2023-05-10T02:43:56.609Z,12.6
2023-05-10T02:44:12.748Z,12.63
2023-05-10T02:44:28.812Z,12.61
2023-05-10T02:44:45.077Z,12.6
2023-05-10T02:45:01.230Z,12.6
2023-05-10T02:45:17.337Z,12.63
2023-05-10T02:45:33.399Z,12.63
2023-05-10T02:45:49.645Z,12.52
2023-05-10T02:46:05.784Z,12.54
2023-05-10T02:46:21.955Z,12.56
2023-05-10T02:46:38.252Z,12.52
2023-05-10T02:46:54.214Z,12.46
2023-05-10T02:47:10.392Z,12.5
2023-05-10T02:47:26.488Z,12.51
2023-05-10T02:47:42.721Z,12.52
2023-05-10T02:47:58.860Z,12.51
2023-05-10T02:48:15.069Z,12.45
2023-05-10T02:48:31.101Z,12.42
2023-05-10T02:48:47.248Z,12.46
2023-05-10T02:49:14.667Z,12.53
2023-05-10T02:49:30.819Z,12.5
2023-05-10T02:49:46.937Z,12.53
2023-05-10T02:50:03.126Z,12.48
2023-05-10T02:50:19.352Z,12.51
2023-05-10T02:50:35.375Z,12.52
2023-05-10T02:50:51.539Z,12.44
2023-05-10T02:51:07.736Z,12.44
2023-05-10T02:51:23.871Z,12.46
2023-05-10T02:51:39.964Z,12.48
2023-05-10T02:51:56.118Z,12.48
2023-05-10T02:52:12.185Z,12.44
2023-05-10T02:52:28.490Z,12.38
2023-05-10T02:52:44.554Z,12.36
2023-05-10T02:53:00.694Z,12.38
2023-05-10T02:53:16.834Z,12.34
2023-05-10T02:53:33.005Z,12.37
2023-05-10T02:53:49.171Z,12.38
2023-05-10T02:54:05.280Z,12.41
2023-05-10T02:54:21.413Z,12.43
2023-05-10T02:54:37.569Z,12.47
2023-05-10T02:54:53.717Z,12.42
2023-05-10T02:55:09.884Z,12.41
2023-05-10T02:55:26.014Z,12.42
2023-05-10T02:55:42.170Z,12.46
2023-05-10T02:55:58.282Z,12.45
2023-05-10T02:56:14.453Z,12.44
2023-05-10T02:56:30.610Z,12.45
2023-05-10T02:56:46.726Z,12.4
2023-05-10T02:57:02.902Z,12.39
2023-05-10T02:57:19.059Z,12.39
2023-05-10T02:57:35.210Z,12.4
2023-05-10T02:57:51.326Z,12.38
2023-05-10T02:58:07.478Z,12.36
2023-05-10T02:58:23.629Z,12.37
2023-05-10T02:58:39.770Z,12.34
2023-05-10T02:58:55.958Z,12.32
2023-05-10T02:59:12.057Z,12.38
2023-05-10T02:59:28.193Z,12.4
2023-05-10T02:59:44.349Z,12.38
2023-05-10T03:00:00.478Z,12.39
2023-05-10T03:00:16.927Z,12.36
2023-05-10T03:00:32.776Z,12.38
2023-05-10T03:00:48.919Z,12.34
2023-05-10T03:01:05.112Z,12.27
2023-05-10T03:01:21.252Z,12.32
2023-05-10T03:01:37.407Z,12.37
2023-05-10T03:01:53.553Z,12.33
2023-05-10T03:02:09.637Z,12.36
2023-05-10T03:02:25.870Z,12.39
2023-05-10T03:02:41.951Z,12.38
2023-05-10T03:02:58.130Z,12.39
2023-05-10T03:03:14.241Z,12.38
2023-05-10T03:03:30.360Z,12.36
2023-05-10T03:03:46.529Z,12.28
2023-05-10T03:04:02.677Z,12.26
2023-05-10T03:04:18.749Z,12.24
2023-05-10T03:04:35.024Z,12.23
2023-05-10T03:04:51.232Z,12.16
2023-05-10T03:05:07.247Z,12.22
2023-05-10T03:05:23.396Z,12.26
2023-05-10T03:05:39.533Z,12.29
2023-05-10T03:05:55.711Z,12.21
2023-05-10T03:06:11.826Z,12.25
2023-05-10T03:06:27.893Z,12.26
2023-05-10T03:06:44.113Z,12.27
2023-05-10T03:07:00.337Z,12.25
2023-05-10T03:07:16.430Z,12.18
2023-05-10T03:07:32.572Z,12.19
2023-05-10T03:07:48.709Z,12.25
2023-05-10T03:08:04.883Z,12.24
2023-05-10T03:08:21.051Z,12.25
2023-05-10T03:08:37.129Z,12.25
2023-05-10T03:08:53.293Z,12.21
2023-05-10T03:09:09.454Z,12.26
2023-05-10T03:09:25.574Z,12.24
2023-05-10T03:09:41.752Z,12.23
2023-05-10T03:09:57.881Z,12.21
2023-05-10T03:10:14.121Z,12.23
2023-05-10T03:10:30.156Z,12.24
2023-05-10T03:10:46.325Z,12.3
2023-05-10T03:11:02.468Z,12.26
2023-05-10T03:11:18.634Z,12.26
2023-05-10T03:11:34.751Z,12.29
2023-05-10T03:11:50.900Z,12.28
2023-05-10T03:12:07.022Z,12.31
2023-05-10T03:12:23.211Z,12.24
2023-05-10T03:12:39.363Z,12.23
2023-05-10T03:12:55.493Z,12.27
2023-05-10T03:13:11.649Z,12.26
2023-05-10T03:13:27.934Z,12.25
2023-05-10T03:13:43.893Z,12.26
2023-05-10T03:14:00.058Z,12.31
2023-05-10T03:14:16.188Z,12.29
2023-05-10T03:14:32.338Z,12.22
2023-05-10T03:14:48.472Z,12.23
2023-05-10T03:15:04.640Z,12.22
2023-05-10T03:15:20.706Z,12.26
2023-05-10T03:15:36.938Z,12.25
2023-05-10T03:15:53.112Z,12.26
2023-05-10T03:16:09.282Z,12.23
2023-05-10T03:16:25.368Z,12.22
2023-05-10T03:16:43.338Z,12.22
2023-05-10T03:16:57.694Z,12.24
2023-05-10T03:17:13.835Z,12.21
2023-05-10T03:17:29.996Z,12.19
2023-05-10T03:17:46.157Z,12.16
2023-05-10T03:18:02.271Z,12.16
2023-05-10T03:18:18.396Z,12.13
2023-05-10T03:18:34.528Z,12.04
2023-05-10T03:18:50.685Z,12
2023-05-10T03:19:06.805Z,12.04
2023-05-10T03:19:22.953Z,12.07
2023-05-10T03:19:39.101Z,12.07
2023-05-10T03:19:55.276Z,12.07
2023-05-10T03:20:11.407Z,12.04
2023-05-10T03:20:27.527Z,12.07
2023-05-10T03:20:43.694Z,12.12
2023-05-10T03:20:59.867Z,12.16
2023-05-10T03:21:15.988Z,12.12
2023-05-10T03:21:32.132Z,12.1
2023-05-10T03:21:48.268Z,12.09
2023-05-10T03:22:04.464Z,12.07
2023-05-10T03:22:20.564Z,12.12
2023-05-10T03:22:36.707Z,12.13
2023-05-10T03:22:53.016Z,12.14
2023-05-10T03:23:09.022Z,12.17
2023-05-10T03:23:25.167Z,12.1
2023-05-10T03:23:41.310Z,12.13
2023-05-10T03:23:57.441Z,12.11
2023-05-10T03:24:13.626Z,12.15
2023-05-10T03:24:29.771Z,12.17
2023-05-10T03:24:45.869Z,12.13
2023-05-10T03:25:02.013Z,12.09
2023-05-10T03:25:18.153Z,12.08
2023-05-10T03:25:34.321Z,12.02
2023-05-10T03:25:50.457Z,12.07
2023-05-10T03:26:06.601Z,12.05
2023-05-10T03:26:22.792Z,12.11
2023-05-10T03:26:38.916Z,12.02
2023-05-10T03:26:55.052Z,12
2023-05-10T03:27:11.199Z,12.05
2023-05-10T03:27:27.319Z,12.08
2023-05-10T03:27:43.514Z,12.01
2023-05-10T03:27:59.612Z,12.05
2023-05-10T03:28:15.791Z,12.03
2023-05-10T03:28:31.841Z,12.08
2023-05-10T03:28:48.053Z,12.06
2023-05-10T03:29:04.184Z,12.04
2023-05-10T03:29:20.360Z,12.02
2023-05-10T03:29:36.516Z,11.96